sensor_id;sensor_type;location;lat;lon;timestamp;pressure;altitude;pressure_sealevel;temperature;humidity
80128;BME280;69440;52.118;5.408;2024-01-30T00:00:44;102664.47;;;8.13;100.00
80128;BME280;69440;52.118;5.408;2024-01-30T00:03:10;102675.19;;;8.13;100.00
80128;BME280;69440;52.118;5.408;2024-01-30T00:05:37;102665.38;;;8.12;100.00
80128;BME280;69440;52.118;5.408;2024-01-30T00:08:04;102668.09;;;8.10;100.00
80128;BME280;69440;52.118;5.408;2024-01-30T00:10:30;102666.38;;;8.08;100.00
80128;BME280;69440;52.118;5.408;2024-01-30T00:12:57;102665.47;;;8.07;100.00
80128;BME280;69440;52.118;5.408;2024-01-30T00:15:23;102660.19;;;8.04;100.00
80128;BME280;69440;52.118;5.408;2024-01-30T00:17:50;102662.03;;;8.02;100.00
80128;BME280;69440;52.118;5.408;2024-01-30T00:20:19;102668.25;;;8.03;100.00
80128;BME280;69440;52.118;5.408;2024-01-30T00:22:45;102668.28;;;8.01;100.00
80128;BME280;69440;52.118;5.408;2024-01-30T00:25:12;102671.91;;;7.99;100.00
80128;BME280;69440;52.118;5.408;2024-01-30T00:27:39;102664.81;;;7.96;100.00
80128;BME280;69440;52.118;5.408;2024-01-30T00:30:06;102666.66;;;7.91;100.00
80128;BME280;69440;52.118;5.408;2024-01-30T00:32:33;102668.50;;;7.89;100.00
80128;BME280;69440;52.118;5.408;2024-01-30T00:34:59;102666.66;;;7.91;100.00
80128;BME280;69440;52.118;5.408;2024-01-30T00:37:26;102661.44;;;7.85;100.00
80128;BME280;69440;52.118;5.408;2024-01-30T00:39:52;102661.59;;;7.76;100.00
80128;BME280;69440;52.118;5.408;2024-01-30T00:42:19;102658.06;;;7.74;100.00
80128;BME280;69440;52.118;5.408;2024-01-30T00:44:45;102652.75;;;7.72;100.00
80128;BME280;69440;52.118;5.408;2024-01-30T00:47:12;102658.13;;;7.71;100.00
80128;BME280;69440;52.118;5.408;2024-01-30T00:49:38;102651.03;;;7.68;100.00
80128;BME280;69440;52.118;5.408;2024-01-30T00:52:05;102657.34;;;7.66;100.00
80128;BME280;69440;52.118;5.408;2024-01-30T00:54:32;102656.56;;;7.58;100.00
80128;BME280;69440;52.118;5.408;2024-01-30T00:56:58;102655.81;;;7.50;100.00
80128;BME280;69440;52.118;5.408;2024-01-30T00:59:25;102655.00;;;7.46;100.00
80128;BME280;69440;52.118;5.408;2024-01-30T01:01:52;102664.84;;;7.44;100.00
80128;BME280;69440;52.118;5.408;2024-01-30T01:04:18;102655.97;;;7.40;100.00
80128;BME280;69440;52.118;5.408;2024-01-30T01:06:45;102652.44;;;7.40;100.00
80128;BME280;69440;52.118;5.408;2024-01-30T01:09:12;102664.09;;;7.36;100.00
80128;BME280;69440;52.118;5.408;2024-01-30T01:11:38;102655.19;;;7.35;100.00
80128;BME280;69440;52.118;5.408;2024-01-30T01:14:05;102652.47;;;7.37;100.00
80128;BME280;69440;52.118;5.408;2024-01-30T01:16:31;102651.56;;;7.38;100.00
80128;BME280;69440;52.118;5.408;2024-01-30T01:18:58;102650.66;;;7.39;100.00
80128;BME280;69440;52.118;5.408;2024-01-30T01:21:26;102647.97;;;7.39;100.00
80128;BME280;69440;52.118;5.408;2024-01-30T01:23:53;102645.31;;;7.39;100.00
80128;BME280;69440;52.118;5.408;2024-01-30T01:26:19;102631.91;;;7.40;100.00
80128;BME280;69440;52.118;5.408;2024-01-30T01:28:46;102621.19;;;7.42;100.00
80128;BME280;69440;52.118;5.408;2024-01-30T01:31:12;102614.00;;;7.44;100.00
80128;BME280;69440;52.118;5.408;2024-01-30T01:33:39;102629.97;;;7.48;100.00
80128;BME280;69440;52.118;5.408;2024-01-30T01:36:06;102629.13;;;7.46;100.00
80128;BME280;69440;52.118;5.408;2024-01-30T01:38:32;102626.38;;;7.50;100.00
80128;BME280;69440;52.118;5.408;2024-01-30T01:40:59;102620.19;;;7.47;100.00
80128;BME280;69440;52.118;5.408;2024-01-30T01:43:25;102627.25;;;7.52;100.00
80128;BME280;69440;52.118;5.408;2024-01-30T01:45:52;102625.44;;;7.54;100.00
80128;BME280;69440;52.118;5.408;2024-01-30T01:48:19;102637.88;;;7.56;100.00
80128;BME280;69440;52.118;5.408;2024-01-30T01:50:45;102634.31;;;7.56;100.00
80128;BME280;69440;52.118;5.408;2024-01-30T01:53:12;102626.31;;;7.54;100.00
80128;BME280;69440;52.118;5.408;2024-01-30T01:55:39;102628.13;;;7.52;100.00
80128;BME280;69440;52.118;5.408;2024-01-30T01:58:06;102619.19;;;7.53;100.00
80128;BME280;69440;52.118;5.408;2024-01-30T02:00:35;102620.09;;;7.52;100.00
80128;BME280;69440;52.118;5.408;2024-01-30T02:03:06;102623.72;;;7.50;100.00
80128;BME280;69440;52.118;5.408;2024-01-30T02:05:33;102633.59;;;7.46;100.00
80128;BME280;69440;52.118;5.408;2024-01-30T02:08:00;102627.47;;;7.39;100.00
80128;BME280;69440;52.118;5.408;2024-01-30T02:10:27;102614.16;;;7.36;100.00
80128;BME280;69440;52.118;5.408;2024-01-30T02:12:54;102620.31;;;7.40;100.00
80128;BME280;69440;52.118;5.408;2024-01-30T02:15:20;102622.06;;;7.42;100.00
80128;BME280;69440;52.118;5.408;2024-01-30T02:17:47;102619.44;;;7.39;100.00
80128;BME280;69440;52.118;5.408;2024-01-30T02:20:13;102621.25;;;7.39;100.00
80128;BME280;69440;52.118;5.408;2024-01-30T02:22:41;102615.88;;;7.39;100.00
80128;BME280;69440;52.118;5.408;2024-01-30T02:25:07;102616.78;;;7.39;100.00
80128;BME280;69440;52.118;5.408;2024-01-30T02:27:34;102618.47;;;7.43;100.00
80128;BME280;69440;52.118;5.408;2024-01-30T02:30:00;102628.28;;;7.43;100.00
80128;BME280;69440;52.118;5.408;2024-01-30T02:32:27;102622.94;;;7.43;100.00
80128;BME280;69440;52.118;5.408;2024-01-30T02:34:54;102630.91;;;7.46;100.00
80128;BME280;69440;52.118;5.408;2024-01-30T02:37:20;102624.66;;;7.47;100.00
80128;BME280;69440;52.118;5.408;2024-01-30T02:39:47;102627.34;;;7.45;100.00
80128;BME280;69440;52.118;5.408;2024-01-30T02:42:13;102623.78;;;7.46;100.00
80128;BME280;69440;52.118;5.408;2024-01-30T02:44:39;102622.00;;;7.45;100.00
80128;BME280;69440;52.118;5.408;2024-01-30T02:47:06;102620.25;;;7.44;100.00
80128;BME280;69440;52.118;5.408;2024-01-30T02:49:33;102616.66;;;7.45;100.00
80128;BME280;69440;52.118;5.408;2024-01-30T02:51:59;102607.88;;;7.39;100.00
80128;BME280;69440;52.118;5.408;2024-01-30T02:54:26;102595.47;;;7.35;100.00
80128;BME280;69440;52.118;5.408;2024-01-30T02:56:52;102613.28;;;7.36;100.00
80128;BME280;69440;52.118;5.408;2024-01-30T02:59:19;102597.22;;;7.34;100.00
80128;BME280;69440;52.118;5.408;2024-01-30T03:01:45;102600.75;;;7.38;100.00
80128;BME280;69440;52.118;5.408;2024-01-30T03:04:13;102602.50;;;7.40;100.00
80128;BME280;69440;52.118;5.408;2024-01-30T03:06:44;102600.66;;;7.42;100.00
80128;BME280;69440;52.118;5.408;2024-01-30T03:09:11;102600.59;;;7.45;100.00
80128;BME280;69440;52.118;5.408;2024-01-30T03:11:37;102606.78;;;7.49;100.00
80128;BME280;69440;52.118;5.408;2024-01-30T03:14:04;102593.38;;;7.51;100.00
80128;BME280;69440;52.118;5.408;2024-01-30T03:16:31;102584.44;;;7.52;100.00
80128;BME280;69440;52.118;5.408;2024-01-30T03:18:57;102572.00;;;7.49;100.00
80128;BME280;69440;52.118;5.408;2024-01-30T03:21:24;102571.16;;;7.47;100.00
80128;BME280;69440;52.118;5.408;2024-01-30T03:23:50;102574.69;;;7.49;100.00
80128;BME280;69440;52.118;5.408;2024-01-30T03:26:17;102565.72;;;7.52;100.00
80128;BME280;69440;52.118;5.408;2024-01-30T03:28:43;102582.63;;;7.54;100.00
80128;BME280;69440;52.118;5.408;2024-01-30T03:31:10;102585.28;;;7.54;100.00
80128;BME280;69440;52.118;5.408;2024-01-30T03:33:36;102577.28;;;7.54;100.00
80128;BME280;69440;52.118;5.408;2024-01-30T03:36:04;102586.13;;;7.57;100.00
80128;BME280;69440;52.118;5.408;2024-01-30T03:38:31;102584.31;;;7.58;100.00
80128;BME280;69440;52.118;5.408;2024-01-30T03:40:59;102578.03;;;7.60;100.00
80128;BME280;69440;52.118;5.408;2024-01-30T03:43:26;102575.31;;;7.62;100.00
80128;BME280;69440;52.118;5.408;2024-01-30T03:45:53;102569.94;;;7.63;100.00
80128;BME280;69440;52.118;5.408;2024-01-30T03:48:21;102569.03;;;7.64;100.00
80128;BME280;69440;52.118;5.408;2024-01-30T03:50:47;102558.34;;;7.63;100.00
80128;BME280;69440;52.118;5.408;2024-01-30T03:53:14;102559.22;;;7.65;100.00
80128;BME280;69440;52.118;5.408;2024-01-30T03:55:40;102560.13;;;7.64;100.00
80128;BME280;69440;52.118;5.408;2024-01-30T03:58:07;102552.97;;;7.66;100.00
80128;BME280;69440;52.118;5.408;2024-01-30T04:00:33;102558.34;;;7.66;100.00
80128;BME280;69440;52.118;5.408;2024-01-30T04:03:00;102557.34;;;7.70;100.00
80128;BME280;69440;52.118;5.408;2024-01-30T04:05:26;102556.47;;;7.69;100.00
80128;BME280;69440;52.118;5.408;2024-01-30T04:07:52;102569.84;;;7.69;100.00
80128;BME280;69440;52.118;5.408;2024-01-30T04:10:19;102572.56;;;7.68;100.00
80128;BME280;69440;52.118;5.408;2024-01-30T04:12:46;102569.00;;;7.67;100.00
80128;BME280;69440;52.118;5.408;2024-01-30T04:15:12;102576.06;;;7.71;100.00
80128;BME280;69440;52.118;5.408;2024-01-30T04:18:03;102576.94;;;7.72;100.00
80128;BME280;69440;52.118;5.408;2024-01-30T04:20:29;102565.34;;;7.71;100.00
80128;BME280;69440;52.118;5.408;2024-01-30T04:22:56;102569.75;;;7.74;100.00
80128;BME280;69440;52.118;5.408;2024-01-30T04:25:22;102568.00;;;7.73;100.00
80128;BME280;69440;52.118;5.408;2024-01-30T04:27:49;102559.94;;;7.74;100.00
80128;BME280;69440;52.118;5.408;2024-01-30T04:30:15;102552.81;;;7.73;100.00
80128;BME280;69440;52.118;5.408;2024-01-30T04:32:43;102553.69;;;7.75;100.00
80128;BME280;69440;52.118;5.408;2024-01-30T04:35:10;102542.94;;;7.77;100.00
80128;BME280;69440;52.118;5.408;2024-01-30T04:37:37;102535.78;;;7.77;100.00
80128;BME280;69440;52.118;5.408;2024-01-30T04:40:04;102534.91;;;7.77;100.00
80128;BME280;69440;52.118;5.408;2024-01-30T04:42:31;102538.41;;;7.81;100.00
80128;BME280;69440;52.118;5.408;2024-01-30T04:44:58;102535.66;;;7.84;100.00
80128;BME280;69440;52.118;5.408;2024-01-30T04:47:24;102525.81;;;7.86;100.00
80128;BME280;69440;52.118;5.408;2024-01-30T04:49:51;102534.72;;;7.86;100.00
80128;BME280;69440;52.118;5.408;2024-01-30T04:52:18;102539.19;;;7.86;100.00
80128;BME280;69440;52.118;5.408;2024-01-30T04:54:44;102538.31;;;7.85;100.00
80128;BME280;69440;52.118;5.408;2024-01-30T04:57:11;102540.94;;;7.87;100.00
80128;BME280;69440;52.118;5.408;2024-01-30T04:59:38;102536.53;;;7.84;100.00
80128;BME280;69440;52.118;5.408;2024-01-30T05:02:05;102541.94;;;7.83;100.00
80128;BME280;69440;52.118;5.408;2024-01-30T05:04:32;102545.38;;;7.88;100.00
80128;BME280;69440;52.118;5.408;2024-01-30T05:06:59;102545.34;;;7.89;100.00
80128;BME280;69440;52.118;5.408;2024-01-30T05:09:25;102539.97;;;7.91;100.00
80128;BME280;69440;52.118;5.408;2024-01-30T05:11:52;102539.94;;;7.92;100.00
80128;BME280;69440;52.118;5.408;2024-01-30T05:14:18;102538.09;;;7.94;100.00
80128;BME280;69440;52.118;5.408;2024-01-30T05:16:45;102538.03;;;7.99;100.00
80128;BME280;69440;52.118;5.408;2024-01-30T05:19:13;102541.59;;;7.99;100.00
80128;BME280;69440;52.118;5.408;2024-01-30T05:21:41;102543.31;;;8.02;100.00
80128;BME280;69440;52.118;5.408;2024-01-30T05:24:07;102530.72;;;8.07;100.00
80128;BME280;69440;52.118;5.408;2024-01-30T05:26:36;102526.13;;;8.12;100.00
80128;BME280;69440;52.118;5.408;2024-01-30T05:29:03;102522.47;;;8.16;100.00
80128;BME280;69440;52.118;5.408;2024-01-30T05:31:29;102525.16;;;8.16;100.00
80128;BME280;69440;52.118;5.408;2024-01-30T05:33:56;102515.31;;;8.17;100.00
80128;BME280;69440;52.118;5.408;2024-01-30T05:36:23;102506.38;;;8.18;100.00
80128;BME280;69440;52.118;5.408;2024-01-30T05:38:55;102508.13;;;8.19;100.00
80128;BME280;69440;52.118;5.408;2024-01-30T05:41:22;102519.69;;;8.21;100.00
80128;BME280;69440;52.118;5.408;2024-01-30T05:44:05;102531.28;;;8.21;100.00
80128;BME280;69440;52.118;5.408;2024-01-30T05:46:44;102537.53;;;8.22;100.00
80128;BME280;69440;52.118;5.408;2024-01-30T05:49:11;102527.63;;;8.25;100.00
80128;BME280;69440;52.118;5.408;2024-01-30T05:51:37;102518.66;;;8.26;100.00
80128;BME280;69440;52.118;5.408;2024-01-30T05:54:04;102529.38;;;8.26;100.00
80128;BME280;69440;52.118;5.408;2024-01-30T05:56:30;102524.03;;;8.28;100.00
80128;BME280;69440;52.118;5.408;2024-01-30T05:58:57;102530.22;;;8.30;100.00
80128;BME280;69440;52.118;5.408;2024-01-30T06:01:23;102527.59;;;8.28;100.00
80128;BME280;69440;52.118;5.408;2024-01-30T06:03:50;102528.50;;;8.27;100.00
80128;BME280;69440;52.118;5.408;2024-01-30T06:06:16;102527.63;;;8.27;100.00
80128;BME280;69440;52.118;5.408;2024-01-30T06:08:43;102535.66;;;8.27;100.00
80128;BME280;69440;52.118;5.408;2024-01-30T06:11:10;102538.34;;;8.27;100.00
80128;BME280;69440;52.118;5.408;2024-01-30T06:13:38;102528.47;;;8.29;100.00
80128;BME280;69440;52.118;5.408;2024-01-30T06:16:04;102530.22;;;8.30;100.00
80128;BME280;69440;52.118;5.408;2024-01-30T06:18:32;102532.06;;;8.28;100.00
80128;BME280;69440;52.118;5.408;2024-01-30T06:20:58;102543.63;;;8.30;100.00
80128;BME280;69440;52.118;5.408;2024-01-30T06:23:25;102538.25;;;8.30;100.00
80128;BME280;69440;52.118;5.408;2024-01-30T06:25:51;102528.44;;;8.30;100.00
80128;BME280;69440;52.118;5.408;2024-01-30T06:28:18;102532.00;;;8.31;100.00
80128;BME280;69440;52.118;5.408;2024-01-30T06:30:44;102523.97;;;8.31;100.00
80128;BME280;69440;52.118;5.408;2024-01-30T06:33:14;102540.94;;;8.30;100.00
80128;BME280;69440;52.118;5.408;2024-01-30T06:35:40;102535.59;;;8.30;100.00
80128;BME280;69440;52.118;5.408;2024-01-30T06:38:10;102533.78;;;8.30;100.00
80128;BME280;69440;52.118;5.408;2024-01-30T06:40:37;102536.47;;;8.30;100.00
80128;BME280;69440;52.118;5.408;2024-01-30T06:43:04;102542.75;;;8.29;100.00
80128;BME280;69440;52.118;5.408;2024-01-30T06:45:31;102540.09;;;8.28;100.00
80128;BME280;69440;52.118;5.408;2024-01-30T06:47:58;102557.94;;;8.29;100.00
80128;BME280;69440;52.118;5.408;2024-01-30T06:50:24;102546.34;;;8.28;100.00
80128;BME280;69440;52.118;5.408;2024-01-30T06:52:51;102553.50;;;8.28;100.00
80128;BME280;69440;52.118;5.408;2024-01-30T06:55:18;102540.09;;;8.28;100.00
80128;BME280;69440;52.118;5.408;2024-01-30T06:57:44;102561.53;;;8.28;100.00
80128;BME280;69440;52.118;5.408;2024-01-30T07:00:13;102549.00;;;8.28;100.00
80128;BME280;69440;52.118;5.408;2024-01-30T07:02:40;102553.47;;;8.29;100.00
80128;BME280;69440;52.118;5.408;2024-01-30T07:05:07;102550.81;;;8.28;100.00
80128;BME280;69440;52.118;5.408;2024-01-30T07:07:36;102550.78;;;8.29;100.00
80128;BME280;69440;52.118;5.408;2024-01-30T07:10:03;102552.50;;;8.32;100.00
80128;BME280;69440;52.118;5.408;2024-01-30T07:12:30;102540.91;;;8.31;100.00
80128;BME280;69440;52.118;5.408;2024-01-30T07:14:57;102547.16;;;8.32;100.00
80128;BME280;69440;52.118;5.408;2024-01-30T07:17:25;102549.81;;;8.32;100.00
80128;BME280;69440;52.118;5.408;2024-01-30T07:19:52;102550.75;;;8.31;100.00
80128;BME280;69440;52.118;5.408;2024-01-30T07:22:19;102551.63;;;8.31;100.00
80128;BME280;69440;52.118;5.408;2024-01-30T07:24:45;102555.22;;;8.30;100.00
80128;BME280;69440;52.118;5.408;2024-01-30T07:27:14;102552.50;;;8.32;100.00
80128;BME280;69440;52.118;5.408;2024-01-30T07:29:40;102565.91;;;8.33;100.00
80128;BME280;69440;52.118;5.408;2024-01-30T07:32:07;102565.91;;;8.33;100.00
80128;BME280;69440;52.118;5.408;2024-01-30T07:34:33;102572.09;;;8.35;100.00
80128;BME280;69440;52.118;5.408;2024-01-30T07:37:14;102572.94;;;8.37;100.00
80128;BME280;69440;52.118;5.408;2024-01-30T07:39:42;102575.63;;;8.37;100.00
80128;BME280;69440;52.118;5.408;2024-01-30T07:42:09;102572.88;;;8.40;100.00
80128;BME280;69440;52.118;5.408;2024-01-30T07:44:35;102571.88;;;8.45;100.00
80128;BME280;69440;52.118;5.408;2024-01-30T07:47:02;102584.34;;;8.47;100.00
80128;BME280;69440;52.118;5.408;2024-01-30T07:49:29;102579.75;;;8.52;100.00
80128;BME280;69440;52.118;5.408;2024-01-30T07:51:56;102585.91;;;8.56;100.00
80128;BME280;69440;52.118;5.408;2024-01-30T07:54:24;102585.91;;;8.57;100.00
80128;BME280;69440;52.118;5.408;2024-01-30T07:56:51;102582.28;;;8.60;100.00
80128;BME280;69440;52.118;5.408;2024-01-30T07:59:17;102589.34;;;8.64;100.00
80128;BME280;69440;52.118;5.408;2024-01-30T08:02:04;102589.22;;;8.68;100.00
80128;BME280;69440;52.118;5.408;2024-01-30T08:04:30;102594.47;;;8.73;100.00
80128;BME280;69440;52.118;5.408;2024-01-30T08:06:57;102594.38;;;8.78;100.00
80128;BME280;69440;52.118;5.408;2024-01-30T08:09:24;102591.59;;;8.81;100.00
80128;BME280;69440;52.118;5.408;2024-01-30T08:11:50;102589.69;;;8.86;100.00
80128;BME280;69440;52.118;5.408;2024-01-30T08:14:17;102595.03;;;8.87;100.00
80128;BME280;69440;52.118;5.408;2024-01-30T08:16:43;102593.13;;;8.92;100.00
80128;BME280;69440;52.118;5.408;2024-01-30T08:19:10;102592.16;;;8.96;100.00
80128;BME280;69440;52.118;5.408;2024-01-30T08:21:36;102586.66;;;9.01;100.00
80128;BME280;69440;52.118;5.408;2024-01-30T08:24:05;102583.91;;;9.04;100.00
80128;BME280;69440;52.118;5.408;2024-01-30T08:26:32;102590.06;;;9.08;100.00
80128;BME280;69440;52.118;5.408;2024-01-30T08:28:59;102589.97;;;9.12;100.00
80128;BME280;69440;52.118;5.408;2024-01-30T08:31:26;102588.91;;;9.18;100.00
80128;BME280;69440;52.118;5.408;2024-01-30T08:33:53;102599.53;;;9.24;100.00
80128;BME280;69440;52.118;5.408;2024-01-30T08:36:19;102590.44;;;9.29;100.00
80128;BME280;69440;52.118;5.408;2024-01-30T08:38:46;102590.25;;;9.36;100.00
80128;BME280;69440;52.118;5.408;2024-01-30T08:41:13;102582.09;;;9.40;100.00
80128;BME280;69440;52.118;5.408;2024-01-30T08:43:40;102588.22;;;9.45;100.00
80128;BME280;69440;52.118;5.408;2024-01-30T08:46:06;102585.34;;;9.53;100.00
80128;BME280;69440;52.118;5.408;2024-01-30T08:48:33;102591.47;;;9.58;100.00
80128;BME280;69440;52.118;5.408;2024-01-30T08:50:59;102581.50;;;9.63;100.00
80128;BME280;69440;52.118;5.408;2024-01-30T08:53:26;102593.88;;;9.69;100.00
80128;BME280;69440;52.118;5.408;2024-01-30T08:55:52;102586.53;;;9.75;100.00
80128;BME280;69440;52.118;5.408;2024-01-30T08:58:19;102591.75;;;9.81;100.00
80128;BME280;69440;52.118;5.408;2024-01-30T09:00:45;102601.38;;;9.88;100.00
80128;BME280;69440;52.118;5.408;2024-01-30T09:03:12;102594.91;;;9.95;100.00
80128;BME280;69440;52.118;5.408;2024-01-30T09:05:38;102599.22;;;10.01;100.00
80128;BME280;69440;52.118;5.408;2024-01-30T09:08:05;102592.69;;;10.11;100.00
80128;BME280;69440;52.118;5.408;2024-01-30T09:10:32;102587.03;;;10.22;100.00
80128;BME280;69440;52.118;5.408;2024-01-30T09:12:58;102590.38;;;10.30;100.00
80128;BME280;69440;52.118;5.408;2024-01-30T09:15:25;102590.94;;;10.41;100.00
80128;BME280;69440;52.118;5.408;2024-01-30T09:17:52;102580.78;;;10.51;100.00
80128;BME280;69440;52.118;5.408;2024-01-30T09:20:18;102596.69;;;10.58;100.00
80128;BME280;69440;52.118;5.408;2024-01-30T09:22:46;102610.94;;;10.61;100.00
80128;BME280;69440;52.118;5.408;2024-01-30T09:25:13;102598.47;;;10.58;100.00
80128;BME280;69440;52.118;5.408;2024-01-30T09:27:39;102604.75;;;10.58;100.00
80128;BME280;69440;52.118;5.408;2024-01-30T09:30:07;102615.50;;;10.58;100.00
80128;BME280;69440;52.118;5.408;2024-01-30T09:32:33;102612.81;;;10.58;100.00
80128;BME280;69440;52.118;5.408;2024-01-30T09:35:00;102604.69;;;10.60;100.00
80128;BME280;69440;52.118;5.408;2024-01-30T09:37:26;102614.56;;;10.60;100.00
80128;BME280;69440;52.118;5.408;2024-01-30T09:39:53;102619.84;;;10.63;100.00
80128;BME280;69440;52.118;5.408;2024-01-30T09:42:36;102614.47;;;10.63;100.00
80128;BME280;69440;52.118;5.408;2024-01-30T09:45:04;102620.78;;;10.62;100.00
80128;BME280;69440;52.118;5.408;2024-01-30T09:47:32;102622.59;;;10.61;100.00
80128;BME280;69440;52.118;5.408;2024-01-30T09:50:06;102627.97;;;10.61;100.00
80128;BME280;69440;52.118;5.408;2024-01-30T09:52:33;102630.59;;;10.63;100.00
80128;BME280;69440;52.118;5.408;2024-01-30T09:55:00;102626.94;;;10.65;100.00
80128;BME280;69440;52.118;5.408;2024-01-30T09:57:27;102630.50;;;10.66;100.00
80128;BME280;69440;52.118;5.408;2024-01-30T09:59:54;102631.34;;;10.68;100.00
80128;BME280;69440;52.118;5.408;2024-01-30T10:02:21;102635.78;;;10.69;100.00
80128;BME280;69440;52.118;5.408;2024-01-30T10:04:49;102632.16;;;10.70;100.00
80128;BME280;69440;52.118;5.408;2024-01-30T10:07:17;102628.56;;;10.71;100.00
80128;BME280;69440;52.118;5.408;2024-01-30T10:09:44;102629.44;;;10.71;100.00
80128;BME280;69440;52.118;5.408;2024-01-30T10:12:11;102637.50;;;10.71;100.00
80128;BME280;69440;52.118;5.408;2024-01-30T10:14:39;102620.47;;;10.71;100.00
80128;BME280;69440;52.118;5.408;2024-01-30T10:17:07;102625.84;;;10.72;100.00
80128;BME280;69440;52.118;5.408;2024-01-30T10:19:46;102629.38;;;10.74;100.00
80128;BME280;69440;52.118;5.408;2024-01-30T10:22:13;102631.03;;;10.78;100.00
80128;BME280;69440;52.118;5.408;2024-01-30T10:24:40;102629.84;;;10.87;100.00
80128;BME280;69440;52.118;5.408;2024-01-30T10:27:06;102626.03;;;10.94;100.00
80128;BME280;69440;52.118;5.408;2024-01-30T10:29:33;102637.47;;;11.01;100.00
80128;BME280;69440;52.118;5.408;2024-01-30T10:32:04;102612.94;;;11.11;100.00
80128;BME280;69440;52.118;5.408;2024-01-30T10:34:31;102619.81;;;11.20;100.00
80128;BME280;69440;52.118;5.408;2024-01-30T10:37:11;102640.03;;;11.33;100.00
80128;BME280;69440;52.118;5.408;2024-01-30T10:39:42;102649.34;;;11.49;100.00
80128;BME280;69440;52.118;5.408;2024-01-30T10:42:18;102627.19;;;11.41;100.00
80128;BME280;69440;52.118;5.408;2024-01-30T10:47:25;102632.28;;;11.23;100.00
80128;BME280;69440;52.118;5.408;2024-01-30T10:49:54;102641.50;;;11.15;100.00
80128;BME280;69440;52.118;5.408;2024-01-30T10:52:23;102628.16;;;11.12;100.00
80128;BME280;69440;52.118;5.408;2024-01-30T10:54:51;102647.97;;;11.10;100.00
80128;BME280;69440;52.118;5.408;2024-01-30T10:57:18;102644.44;;;11.08;100.00
80128;BME280;69440;52.118;5.408;2024-01-30T10:59:46;102651.50;;;11.12;100.00
80128;BME280;69440;52.118;5.408;2024-01-30T11:02:14;102658.53;;;11.16;100.00
80128;BME280;69440;52.118;5.408;2024-01-30T11:04:41;102659.47;;;11.15;100.00
80128;BME280;69440;52.118;5.408;2024-01-30T11:07:18;102642.44;;;11.14;100.00
80128;BME280;69440;52.118;5.408;2024-01-30T11:09:52;102657.59;;;11.17;100.00
80128;BME280;69440;52.118;5.408;2024-01-30T11:12:23;102650.03;;;11.28;100.00
80128;BME280;69440;52.118;5.408;2024-01-30T11:15:01;102645.22;;;11.39;100.00
80128;BME280;69440;52.118;5.408;2024-01-30T11:17:42;102641.59;;;11.40;100.00
80128;BME280;69440;52.118;5.408;2024-01-30T11:20:31;102655.09;;;11.39;100.00
80128;BME280;69440;52.118;5.408;2024-01-30T11:23:02;102650.75;;;11.35;100.00
80128;BME280;69440;52.118;5.408;2024-01-30T11:25:32;102641.88;;;11.31;100.00
80128;BME280;69440;52.118;5.408;2024-01-30T11:27:59;102647.41;;;11.27;100.00
80128;BME280;69440;52.118;5.408;2024-01-30T11:30:27;102652.78;;;11.27;100.00
80128;BME280;69440;52.118;5.408;2024-01-30T11:33:14;102660.72;;;11.31;100.00
80128;BME280;69440;52.118;5.408;2024-01-30T11:35:42;102684.16;;;11.28;100.00
80128;BME280;69440;52.118;5.408;2024-01-30T11:38:14;102669.00;;;11.25;99.21
80128;BME280;69440;52.118;5.408;2024-01-30T11:40:41;102659.31;;;11.19;98.04
80128;BME280;69440;52.118;5.408;2024-01-30T11:43:09;102676.53;;;11.14;97.57
80128;BME280;69440;52.118;5.408;2024-01-30T11:45:36;102698.22;;;11.09;97.56
80128;BME280;69440;52.118;5.408;2024-01-30T11:48:03;102675.72;;;11.12;98.02
80128;BME280;69440;52.118;5.408;2024-01-30T11:50:32;102679.53;;;11.05;97.14
80128;BME280;69440;52.118;5.408;2024-01-30T11:52:59;102689.72;;;10.94;96.39
80128;BME280;69440;52.118;5.408;2024-01-30T11:55:26;102693.47;;;10.88;96.78
80128;BME280;69440;52.118;5.408;2024-01-30T11:57:59;102697.25;;;10.82;97.53
80128;BME280;69440;52.118;5.408;2024-01-30T12:00:26;102684.72;;;10.81;97.69
80128;BME280;69440;52.118;5.408;2024-01-30T12:02:54;102707.34;;;10.74;97.03
80128;BME280;69440;52.118;5.408;2024-01-30T12:05:25;102681.47;;;10.70;97.42
80128;BME280;69440;52.118;5.408;2024-01-30T12:07:51;102704.88;;;10.67;98.14
80128;BME280;69440;52.118;5.408;2024-01-30T12:10:19;102699.63;;;10.62;96.80
80128;BME280;69440;52.118;5.408;2024-01-30T12:12:47;102688.09;;;10.58;96.83
80128;BME280;69440;52.118;5.408;2024-01-30T12:15:15;102712.28;;;10.58;96.68
80128;BME280;69440;52.118;5.408;2024-01-30T12:17:42;102698.06;;;10.55;97.48
80128;BME280;69440;52.118;5.408;2024-01-30T12:20:13;102693.47;;;10.58;96.44
80128;BME280;69440;52.118;5.408;2024-01-30T12:22:42;102740.94;;;10.60;94.29
80128;BME280;69440;52.118;5.408;2024-01-30T12:25:13;102721.63;;;10.45;94.39
80128;BME280;69440;52.118;5.408;2024-01-30T12:27:42;102716.63;;;10.32;94.67
80128;BME280;69440;52.118;5.408;2024-01-30T12:30:11;102751.78;;;10.24;95.69
80128;BME280;69440;52.118;5.408;2024-01-30T12:32:42;102758.38;;;10.11;96.79
80128;BME280;69440;52.118;5.408;2024-01-30T12:35:13;102751.41;;;10.02;98.37
80128;BME280;69440;52.118;5.408;2024-01-30T12:37:41;102739.16;;;9.92;97.90
80128;BME280;69440;52.118;5.408;2024-01-30T12:40:09;102753.63;;;9.86;98.89
80128;BME280;69440;52.118;5.408;2024-01-30T12:42:36;102728.63;;;9.84;99.12
80128;BME280;69440;52.118;5.408;2024-01-30T12:45:03;102751.03;;;9.83;99.20
80128;BME280;69440;52.118;5.408;2024-01-30T12:47:31;102766.25;;;9.83;98.89
80128;BME280;69440;52.118;5.408;2024-01-30T12:49:58;102762.69;;;9.82;98.28
80128;BME280;69440;52.118;5.408;2024-01-30T12:52:24;102755.56;;;9.81;97.68